createdAt,value
2023-02-22T00:03:35.113Z,-14.84
2023-02-22T00:08:40.528Z,-14.96
2023-02-22T00:13:45.396Z,-14.87
2023-02-22T00:18:49.164Z,-14.96
2023-02-22T00:23:55.043Z,-14.90
2023-02-22T00:28:58.543Z,-14.92
2023-02-22T00:34:02.045Z,-14.97
2023-02-22T00:39:07.816Z,-14.81
2023-02-22T00:44:12.056Z,-14.82
2023-02-22T00:49:15.483Z,-14.84
2023-02-22T00:54:20.998Z,-14.95
2023-02-22T00:59:24.352Z,-14.94
2023-02-22T01:04:27.877Z,-14.97
2023-02-22T01:09:33.125Z,-14.93
2023-02-22T01:14:36.524Z,-14.91
2023-02-22T01:19:42.823Z,-14.90
2023-02-22T01:24:47.734Z,-14.96
2023-02-22T01:29:51.459Z,-15.03
2023-02-22T01:34:55.236Z,-14.93
2023-02-22T01:40:00.090Z,-14.95
2023-02-22T01:45:37.261Z,-14.93
2023-02-22T01:50:45.586Z,-15.10
2023-02-22T01:55:52.049Z,-15.29
2023-02-22T02:00:55.757Z,-15.32
2023-02-22T02:06:02.375Z,-15.30
2023-02-22T02:11:09.683Z,-15.37
2023-02-22T02:16:13.219Z,-15.48
2023-02-22T02:21:52.165Z,-15.35
2023-02-22T02:27:17.475Z,-15.32
2023-02-22T02:32:36.773Z,-15.28
2023-02-22T02:37:50.097Z,-15.23
2023-02-22T02:43:02.897Z,-15.20
2023-02-22T02:48:10.469Z,-15.14
2023-02-22T02:53:17.288Z,-15.11
2023-02-22T02:58:23.719Z,-15.07
2023-02-22T03:03:52.101Z,-15.00
2023-02-22T03:09:02.850Z,-15.01
2023-02-22T03:14:18.298Z,-15.07
2023-02-22T03:19:29.724Z,-15.20
2023-02-22T03:24:38.734Z,-15.23
2023-02-22T03:29:46.754Z,-15.26
2023-02-22T03:34:59.278Z,-15.32
2023-02-22T03:40:14.126Z,-15.35
2023-02-22T03:45:21.412Z,-15.46
2023-02-22T03:50:30.333Z,-15.61
2023-02-22T03:55:34.020Z,-15.73
2023-02-22T04:00:37.677Z,-15.91
2023-02-22T04:05:42.463Z,-15.98
2023-02-22T04:10:46.197Z,-16.08
2023-02-22T04:15:49.298Z,-16.05
2023-02-22T04:20:54.291Z,-16.11
2023-02-22T04:25:57.769Z,-16.17
2023-02-22T04:31:01.215Z,-16.21
2023-02-22T04:36:06.697Z,-16.19
2023-02-22T04:41:10.104Z,-16.22
2023-02-22T04:46:13.933Z,-16.23
2023-02-22T04:51:20.210Z,-16.20
2023-02-22T04:56:23.731Z,-16.20
2023-02-22T05:01:27.152Z,-16.07
2023-02-22T05:06:32.108Z,-15.93
2023-02-22T05:11:35.597Z,-15.78
2023-02-22T05:16:39.352Z,-15.63
2023-02-22T05:21:44.105Z,-15.49
2023-02-22T05:26:47.860Z,-15.25
2023-02-22T05:31:51.477Z,-14.92
2023-02-22T05:36:56.402Z,-14.64
2023-02-22T05:41:59.839Z,-14.49
2023-02-22T05:47:03.429Z,-14.29
2023-02-22T05:52:08.484Z,-13.91
2023-02-22T05:57:11.889Z,-13.66
2023-02-22T06:02:15.456Z,-13.24
2023-02-22T06:07:20.301Z,-12.62
2023-02-22T06:12:23.874Z,-11.19
2023-02-22T06:17:27.436Z,-9.76
2023-02-22T06:22:32.704Z,-6.96
2023-02-22T06:27:37.533Z,-3.74
2023-02-22T06:32:40.936Z,-1.12
2023-02-22T06:37:45.945Z,1.19
2023-02-22T06:42:50.413Z,2.81
2023-02-22T06:47:53.976Z,4.46
2023-02-22T06:52:59.530Z,5.67
2023-02-22T06:58:04.165Z,6.36
2023-02-22T07:03:07.711Z,7.10
2023-02-22T07:08:13.454Z,7.88
2023-02-22T07:13:16.913Z,8.64
2023-02-22T07:18:20.319Z,9.89
2023-02-22T07:23:25.699Z,10.94
2023-02-22T07:28:29.144Z,11.14
2023-02-22T07:33:32.619Z,11.89
2023-02-22T07:38:38.955Z,11.82
2023-02-22T07:43:42.021Z,12.90
2023-02-22T07:48:45.504Z,13.12
2023-02-22T07:53:50.362Z,13.18
2023-02-22T07:58:53.563Z,13.72
2023-02-22T08:03:57.113Z,13.85
2023-02-22T08:09:01.990Z,13.59
2023-02-22T08:14:05.211Z,14.12
2023-02-22T08:19:08.716Z,14.43
2023-02-22T08:24:13.545Z,15.04
2023-02-22T08:29:16.675Z,14.68
2023-02-22T08:34:20.068Z,14.85
2023-02-22T08:39:24.964Z,14.83
2023-02-22T08:44:28.381Z,13.60
2023-02-22T08:49:31.947Z,13.32
2023-02-22T08:54:36.911Z,11.92
2023-02-22T08:59:40.518Z,10.63
2023-02-22T09:04:44.104Z,8.12
2023-02-22T09:09:49.136Z,5.64
2023-02-22T09:14:52.606Z,3.80
2023-02-22T09:19:56.557Z,2.48
2023-02-22T09:25:11.427Z,1.91
2023-02-22T09:30:24.027Z,1.09
2023-02-22T09:35:28.602Z,-0.13
2023-02-22T09:40:41.249Z,-0.98
2023-02-22T09:46:06.416Z,-1.73
2023-02-22T09:51:14.360Z,-2.90
2023-02-22T09:56:22.706Z,-3.02
2023-02-22T10:01:32.780Z,-3.60
2023-02-22T10:06:36.891Z,-4.08
2023-02-22T10:11:53.743Z,-4.58
2023-02-22T10:17:06.512Z,-4.37
2023-02-22T10:22:30.199Z,-4.36
2023-02-22T10:27:41.460Z,-4.76
2023-02-22T10:32:49.187Z,-5.02
2023-02-22T10:37:55.779Z,-5.38
2023-02-22T10:43:03.207Z,-5.58
2023-02-22T10:48:11.742Z,-5.67
2023-02-22T10:53:16.732Z,-5.88
2023-02-22T10:58:21.896Z,-6.16
2023-02-22T11:03:26.047Z,-6.56
2023-02-22T11:08:33.030Z,-6.76
2023-02-22T11:13:40.896Z,-6.73
2023-02-22T11:18:44.547Z,-6.85
2023-02-22T11:23:47.998Z,-7.06
2023-02-22T11:28:56.454Z,-7.23
2023-02-22T11:34:02.378Z,-7.46
2023-02-22T11:39:11.636Z,-7.49
2023-02-22T11:44:28.403Z,-7.34
2023-02-22T11:49:36.041Z,-7.42
2023-02-22T11:55:03.130Z,-7.39
2023-02-22T12:00:24.818Z,-7.42
2023-02-22T12:05:40.930Z,-7.52
2023-02-22T12:10:55.758Z,-7.57
2023-02-22T12:16:11.434Z,-7.90
2023-02-22T12:21:18.183Z,-8.01
2023-02-22T12:26:27.184Z,-8.29
2023-02-22T12:31:37.453Z,-8.37
2023-02-22T12:36:47.254Z,-8.40
2023-02-22T12:41:55.943Z,-8.52
2023-02-22T12:47:02.685Z,-8.64
2023-02-22T12:52:21.630Z,-8.68
2023-02-22T12:57:38.613Z,-8.55
2023-02-22T13:02:47.372Z,-8.62
2023-02-22T13:08:02.945Z,-8.37
2023-02-22T13:13:17.403Z,-8.41
2023-02-22T13:18:30.145Z,-8.49
2023-02-22T13:23:43.770Z,-8.81
2023-02-22T13:28:52.308Z,-8.76
2023-02-22T13:34:16.607Z,-8.64
2023-02-22T13:39:47.366Z,-8.80
2023-02-22T13:45:27.226Z,-8.89
2023-02-22T13:50:51.708Z,-9.00
2023-02-22T13:55:58.079Z,-9.20
2023-02-22T14:01:01.954Z,-9.28
2023-02-22T14:06:08.549Z,-9.37
2023-02-22T14:11:57.200Z,-9.50
2023-02-22T14:17:24.962Z,-9.56
2023-02-22T14:22:30.995Z,-9.64
2023-02-22T14:27:42.096Z,-9.75
2023-02-22T14:32:49.242Z,-9.86
2023-02-22T14:37:59.234Z,-9.93
2023-02-22T14:43:07.784Z,-10.12
2023-02-22T14:48:21.665Z,-10.20
2023-02-22T14:53:31.721Z,-10.20
2023-02-22T14:58:42.039Z,-10.33
2023-02-22T15:03:45.570Z,-10.41
2023-02-22T15:09:06.269Z,-10.48
2023-02-22T15:14:25.779Z,-10.57
2023-02-22T15:19:32.947Z,-10.69
2023-02-22T15:24:39.713Z,-10.74
2023-02-22T15:29:45.824Z,-11.06
2023-02-22T15:34:49.382Z,-10.88
2023-02-22T15:39:59.684Z,-10.93
2023-02-22T15:45:03.532Z,-10.96
2023-02-22T15:50:18.460Z,-10.99
2023-02-22T15:55:25.909Z,-11.05
2023-02-22T16:00:36.515Z,-11.06
2023-02-22T16:05:43.428Z,-11.06
2023-02-22T16:10:55.201Z,-11.13
2023-02-22T16:16:02.247Z,-11.18
2023-02-22T16:21:11.979Z,-11.14
2023-02-22T16:26:29.600Z,-11.10
2023-02-22T16:31:35.009Z,-11.09
2023-02-22T16:36:40.928Z,-11.14
2023-02-22T16:41:45.832Z,-11.14
2023-02-22T16:46:49.487Z,-11.16
2023-02-22T16:51:55.478Z,-11.22
2023-02-22T16:57:02.228Z,-11.21
2023-02-22T17:02:07.837Z,-11.26
2023-02-22T17:07:11.379Z,-11.33
2023-02-22T17:12:16.210Z,-11.35
2023-02-22T17:17:19.624Z,-11.39
2023-02-22T17:22:24.265Z,-11.44
2023-02-22T17:27:29.226Z,-11.58
2023-02-22T17:32:32.668Z,-11.61
2023-02-22T17:37:36.209Z,-11.73
2023-02-22T17:42:41.192Z,-11.71
2023-02-22T17:47:45.375Z,-11.71
2023-02-22T17:52:51.752Z,-11.64
2023-02-22T17:57:59.129Z,-11.64
2023-02-22T18:03:04.178Z,-11.64
2023-02-22T18:08:07.601Z,-11.59
2023-02-22T18:13:16.885Z,-11.59
2023-02-22T18:18:22.432Z,-11.65
2023-02-22T18:23:28.001Z,-11.73
2023-02-22T18:28:32.836Z,-11.55
2023-02-22T18:33:36.362Z,-11.65
2023-02-22T18:38:43.445Z,-11.65
2023-02-22T18:43:48.485Z,-11.52
2023-02-22T18:48:54.977Z,-11.47
2023-02-22T18:54:01.203Z,-11.43
2023-02-22T18:59:06.847Z,-11.56
2023-02-22T19:04:12.206Z,-11.62
2023-02-22T19:09:15.966Z,-11.69
2023-02-22T19:14:21.486Z,-11.79
2023-02-22T19:19:26.553Z,-11.95
2023-02-22T19:24:30.349Z,-11.94
2023-02-22T19:29:38.182Z,-11.92
2023-02-22T19:34:44.110Z,-11.99
2023-02-22T19:39:47.500Z,-12.00
2023-02-22T19:44:53.511Z,-12.05
2023-02-22T19:49:59.694Z,-12.04
2023-02-22T19:55:03.950Z,-12.19
2023-02-22T20:00:11.493Z,-12.20
2023-02-22T20:05:16.743Z,-12.22
2023-02-22T20:10:20.268Z,-12.25
2023-02-22T20:15:25.294Z,-12.26
2023-02-22T20:20:30.698Z,-12.32
2023-02-22T20:25:35.685Z,-12.33
2023-02-22T20:30:40.533Z,-12.30
2023-02-22T20:35:44.088Z,-12.44
2023-02-22T20:40:48.127Z,-12.45
2023-02-22T20:45:53.048Z,-12.39
2023-02-22T20:50:56.635Z,-12.51
2023-02-22T20:56:00.324Z,-12.41
2023-02-22T21:01:12.274Z,-12.44
2023-02-22T21:06:17.896Z,-12.46
2023-02-22T21:11:22.710Z,-12.52
2023-02-22T21:16:29.706Z,-12.59
2023-02-22T21:21:33.424Z,-12.61
2023-02-22T21:26:36.780Z,-12.66
2023-02-22T21:31:41.798Z,-12.65
2023-02-22T21:36:46.117Z,-12.71
2023-02-22T21:41:52.216Z,-12.82
2023-02-22T21:46:57.453Z,-12.81
2023-02-22T21:52:01.018Z,-12.85
2023-02-22T21:57:06.691Z,-12.88
2023-02-22T22:02:12.842Z,-12.86
2023-02-22T22:07:17.967Z,-12.94
2023-02-22T22:12:26.014Z,-12.94
2023-02-22T22:17:33.884Z,-12.96
2023-02-22T22:22:37.629Z,-13.05
2023-02-22T22:27:41.632Z,-13.09
2023-02-22T22:32:46.719Z,-13.09
2023-02-22T22:37:51.437Z,-13.16
2023-02-22T22:42:55.080Z,-13.23
2023-02-22T22:47:59.984Z,-13.16
2023-02-22T22:53:03.351Z,-13.28
2023-02-22T22:58:06.754Z,-13.24
2023-02-22T23:03:18.965Z,-13.21
2023-02-22T23:08:29.387Z,-13.34
2023-02-22T23:13:33.169Z,-13.30
2023-02-22T23:18:38.033Z,-13.28
2023-02-22T23:23:41.579Z,-13.36
2023-02-22T23:28:46.700Z,-13.37
2023-02-22T23:33:52.065Z,-13.43
2023-02-22T23:38:56.051Z,-13.43
2023-02-22T23:44:00.169Z,-13.46
2023-02-22T23:49:06.746Z,-13.52
2023-02-22T23:54:13.584Z,-13.52
2023-02-22T23:59:17.008Z,-13.45
